createdAt,value
2023-02-16T00:00:32.571Z,-0.67
2023-02-16T00:03:39.133Z,-0.68
2023-02-16T00:06:47.413Z,-0.72
2023-02-16T00:09:53.724Z,-0.73
2023-02-16T00:13:15.204Z,-0.75
2023-02-16T00:16:24.694Z,-0.86
2023-02-16T00:19:33.583Z,-0.91
2023-02-16T00:22:42.565Z,-0.96
2023-02-16T00:25:48.161Z,-0.98
2023-02-16T00:28:59.364Z,-1.05
2023-02-16T00:32:08.787Z,-1.12
2023-02-16T00:35:18.904Z,-1.21
2023-02-16T00:38:27.009Z,-1.30
2023-02-16T00:41:53.517Z,-1.41
2023-02-16T00:45:02.239Z,-1.54
2023-02-16T00:48:09.310Z,-1.61
2023-02-16T00:51:25.423Z,-1.73
2023-02-16T00:54:35.263Z,-1.66
2023-02-16T00:57:48.792Z,-1.66
2023-02-16T01:01:01.949Z,-1.67
2023-02-16T01:04:13.552Z,-1.70
2023-02-16T01:07:39.457Z,-1.78
2023-02-16T01:11:06.835Z,-1.76
2023-02-16T01:14:16.663Z,-1.70
2023-02-16T01:17:22.374Z,-1.68
2023-02-16T01:20:31.573Z,-1.65
2023-02-16T01:23:38.536Z,-1.60
2023-02-16T01:26:53.136Z,-1.55
2023-02-16T01:29:58.783Z,-1.47
2023-02-16T01:33:06.724Z,-1.46
2023-02-16T01:36:29.833Z,-1.51
2023-02-16T01:39:37.992Z,-1.50
2023-02-16T01:42:56.612Z,-1.49
2023-02-16T01:46:14.972Z,-1.49
2023-02-16T01:49:23.813Z,-1.57
2023-02-16T01:52:40.313Z,-1.61
2023-02-16T01:55:51.302Z,-1.75
2023-02-16T01:59:15.892Z,-1.75
2023-02-16T02:02:28.417Z,-1.71
2023-02-16T02:05:35.793Z,-1.84
2023-02-16T02:08:52.314Z,-1.89
2023-02-16T02:12:17.863Z,-1.84
2023-02-16T02:15:34.443Z,-1.80
2023-02-16T02:18:41.742Z,-1.84
2023-02-16T02:22:42.454Z,-1.90
2023-02-16T02:27:00.458Z,-1.91
2023-02-16T02:30:42.291Z,-1.93
2023-02-16T02:34:07.298Z,-2.04
2023-02-16T02:37:28.566Z,-2.04
2023-02-16T02:40:56.945Z,-1.96
2023-02-16T02:44:12.901Z,-1.93
2023-02-16T02:47:22.290Z,-1.92
2023-02-16T02:51:13.455Z,-2.00
2023-02-16T02:54:42.542Z,-1.94
2023-02-16T02:58:10.108Z,-1.89
2023-02-16T03:01:22.636Z,-1.84
2023-02-16T03:04:36.197Z,-1.88
2023-02-16T03:07:50.375Z,-1.89
2023-02-16T03:11:18.716Z,-1.96
2023-02-16T03:14:33.801Z,-1.94
2023-02-16T03:18:00.727Z,-2.03
2023-02-16T03:21:26.083Z,-1.98
2023-02-16T03:24:51.803Z,-1.92
2023-02-16T03:28:18.757Z,-1.89
2023-02-16T03:31:35.013Z,-1.97
2023-02-16T03:34:41.876Z,-1.98
2023-02-16T03:37:51.107Z,-1.92
2023-02-16T03:40:59.148Z,-1.93
2023-02-16T03:44:04.541Z,-1.86
2023-02-16T03:47:11.185Z,-1.81
2023-02-16T03:50:17.011Z,-1.87
2023-02-16T03:53:26.315Z,-1.85
2023-02-16T03:56:31.765Z,-1.80
2023-02-16T03:59:38.120Z,-1.77
2023-02-16T04:02:43.673Z,-1.72
2023-02-16T04:05:50.419Z,-1.76
2023-02-16T04:08:59.057Z,-1.83
2023-02-16T04:12:20.913Z,-1.90
2023-02-16T04:15:31.183Z,-1.89
2023-02-16T04:18:37.389Z,-1.88
2023-02-16T04:21:45.128Z,-2.04
2023-02-16T04:24:54.168Z,-1.94
2023-02-16T04:28:00.205Z,-1.96
2023-02-16T04:31:06.992Z,-1.94
2023-02-16T04:34:12.773Z,-1.97
2023-02-16T04:37:19.104Z,-1.96
2023-02-16T04:40:27.359Z,-1.98
2023-02-16T04:43:33.781Z,-2.02
2023-02-16T04:46:39.138Z,-2.02
2023-02-16T04:49:45.443Z,-1.95
2023-02-16T04:52:50.769Z,-1.93
2023-02-16T04:55:59.955Z,-1.91
2023-02-16T04:59:05.372Z,-1.95
2023-02-16T05:02:11.797Z,-2.01
2023-02-16T05:05:17.669Z,-2.05
2023-02-16T05:08:24.163Z,-2.07
2023-02-16T05:11:48.303Z,-2.07
2023-02-16T05:14:54.568Z,-2.09
2023-02-16T05:17:59.914Z,-2.09
2023-02-16T05:21:21.748Z,-2.10
2023-02-16T05:24:28.542Z,-2.06
2023-02-16T05:27:38.027Z,-2.02
2023-02-16T05:30:43.559Z,-2.03
2023-02-16T05:33:49.859Z,-2.04
2023-02-16T05:36:55.810Z,-2.22
2023-02-16T05:40:02.070Z,-1.87
2023-02-16T05:43:10.266Z,-1.89
2023-02-16T05:46:16.511Z,-1.92
2023-02-16T05:49:22.049Z,-1.90
2023-02-16T05:52:28.908Z,-1.89
2023-02-16T05:55:34.303Z,-1.99
2023-02-16T05:58:44.226Z,-1.99
2023-02-16T06:01:52.145Z,-2.02
2023-02-16T06:04:58.831Z,-2.09
2023-02-16T06:08:04.238Z,-2.25
2023-02-16T06:11:31.216Z,-2.56
2023-02-16T06:14:39.320Z,-2.15
2023-02-16T06:17:46.681Z,-2.13
2023-02-16T06:20:53.173Z,-2.12
2023-02-16T06:24:00.133Z,-2.18
2023-02-16T06:27:05.520Z,-2.11
2023-02-16T06:30:15.606Z,-2.12
2023-02-16T06:33:21.008Z,-2.01
2023-02-16T06:36:28.489Z,-2.03
2023-02-16T06:39:34.181Z,-2.07
2023-02-16T06:42:40.976Z,-2.16
2023-02-16T06:45:50.052Z,-2.03
2023-02-16T06:48:56.754Z,-2.11
2023-02-16T06:52:02.339Z,-1.96
2023-02-16T06:55:09.391Z,-1.96
2023-02-16T06:58:15.665Z,-1.91
2023-02-16T07:01:26.301Z,-1.87
2023-02-16T07:04:32.310Z,-2.57
2023-02-16T07:07:39.033Z,-1.74
2023-02-16T07:10:50.243Z,-1.63
2023-02-16T07:13:57.262Z,-1.57
2023-02-16T07:17:05.767Z,-1.50
2023-02-16T07:20:15.029Z,-1.42
2023-02-16T07:23:24.405Z,-1.31
2023-02-16T07:26:40.529Z,-1.31
2023-02-16T07:29:47.096Z,-1.20
2023-02-16T07:32:56.292Z,-1.17
2023-02-16T07:36:01.753Z,-1.16
2023-02-16T07:39:08.142Z,-0.98
2023-02-16T07:42:13.605Z,-0.96
2023-02-16T07:45:26.000Z,-0.77
2023-02-16T07:48:34.392Z,-0.68
2023-02-16T07:51:41.045Z,-0.72
2023-02-16T07:54:46.823Z,-0.54
2023-02-16T07:57:56.445Z,-0.36
2023-02-16T08:01:15.766Z,-0.27
2023-02-16T08:04:25.450Z,-0.16
2023-02-16T08:07:31.666Z,-0.05
2023-02-16T08:10:38.000Z,0.06
2023-02-16T08:13:43.789Z,0.04
2023-02-16T08:16:53.594Z,0.02
2023-02-16T08:20:03.063Z,0.03
2023-02-16T08:23:10.513Z,0.15
2023-02-16T08:26:17.752Z,0.24
2023-02-16T08:29:24.685Z,0.36
2023-02-16T08:32:30.484Z,0.48
2023-02-16T08:35:41.384Z,0.62
2023-02-16T08:38:46.781Z,0.71
2023-02-16T08:41:53.878Z,0.70
2023-02-16T08:44:59.245Z,0.79
2023-02-16T08:48:05.623Z,0.84
2023-02-16T08:51:18.640Z,0.78
2023-02-16T08:54:30.634Z,0.91
2023-02-16T08:57:37.789Z,0.87
2023-02-16T09:00:44.564Z,1.01
2023-02-16T09:03:50.678Z,1.17
2023-02-16T09:07:01.983Z,1.25
2023-02-16T09:10:08.284Z,1.33
2023-02-16T09:13:16.431Z,1.42
2023-02-16T09:16:28.145Z,1.02
2023-02-16T09:19:34.422Z,1.60
2023-02-16T09:22:42.675Z,1.71
2023-02-16T09:25:49.161Z,0.94
2023-02-16T09:28:57.403Z,1.64
2023-02-16T09:32:04.271Z,1.69
2023-02-16T09:35:10.937Z,1.66
2023-02-16T09:38:21.600Z,1.69
2023-02-16T09:41:44.223Z,1.79
2023-02-16T09:45:05.786Z,1.94
2023-02-16T09:48:31.144Z,2.00
2023-02-16T09:51:42.107Z,2.11
2023-02-16T09:54:59.764Z,2.00
2023-02-16T09:58:31.870Z,1.94
2023-02-16T10:01:51.253Z,1.77
2023-02-16T10:05:24.718Z,1.82
2023-02-16T10:08:39.287Z,1.90
2023-02-16T10:11:56.631Z,1.89
2023-02-16T10:15:13.009Z,2.15
2023-02-16T10:18:31.297Z,2.23
2023-02-16T10:21:37.089Z,2.25
2023-02-16T10:24:58.711Z,2.46
2023-02-16T10:28:22.770Z,2.56
2023-02-16T10:31:43.569Z,2.72
2023-02-16T10:34:55.113Z,2.88
2023-02-16T10:38:14.300Z,3.11
2023-02-16T10:41:37.200Z,3.03
2023-02-16T10:44:55.677Z,3.02
2023-02-16T10:48:02.110Z,3.15
2023-02-16T10:51:15.720Z,3.27
2023-02-16T10:54:29.398Z,3.29
2023-02-16T10:57:37.424Z,3.50
2023-02-16T11:00:59.561Z,3.56
2023-02-16T11:04:06.843Z,3.58
2023-02-16T11:07:16.206Z,3.64
2023-02-16T11:10:46.338Z,3.74
2023-02-16T11:14:01.561Z,3.89
2023-02-16T11:17:18.480Z,3.87
2023-02-16T11:20:34.425Z,3.88
2023-02-16T11:23:45.140Z,3.89
2023-02-16T11:27:07.732Z,3.83
2023-02-16T11:30:32.657Z,3.85
2023-02-16T11:33:43.460Z,3.98
2023-02-16T11:36:51.976Z,4.13
2023-02-16T11:40:02.703Z,3.88
2023-02-16T11:43:10.697Z,4.26
2023-02-16T11:46:21.584Z,4.39
2023-02-16T11:49:39.935Z,4.41
2023-02-16T11:52:47.293Z,4.42
2023-02-16T11:55:54.231Z,4.25
2023-02-16T11:59:19.325Z,4.25
2023-02-16T12:03:19.447Z,4.34
2023-02-16T12:06:54.894Z,4.40
2023-02-16T12:10:12.928Z,4.44
2023-02-16T12:13:32.177Z,4.53
2023-02-16T12:16:50.187Z,4.63
2023-02-16T12:20:11.728Z,4.68
2023-02-16T12:23:43.209Z,4.75
2023-02-16T12:26:58.809Z,4.78
2023-02-16T12:30:30.580Z,4.86
2023-02-16T12:33:50.400Z,4.96
2023-02-16T12:37:10.777Z,4.94
2023-02-16T12:40:39.531Z,5.06
2023-02-16T12:43:52.816Z,5.12
2023-02-16T12:47:08.396Z,4.93
2023-02-16T12:50:26.146Z,5.07
2023-02-16T12:53:46.497Z,5.05
2023-02-16T12:57:05.357Z,5.08
2023-02-16T13:00:25.560Z,5.00
2023-02-16T13:03:42.936Z,5.00
2023-02-16T13:07:02.039Z,4.95
2023-02-16T13:10:24.113Z,4.94
2023-02-16T13:13:38.530Z,4.98
2023-02-16T13:16:53.020Z,4.87
2023-02-16T13:19:58.454Z,4.78
2023-02-16T13:23:47.349Z,4.64
2023-02-16T13:27:16.515Z,4.68
2023-02-16T13:30:58.464Z,4.76
2023-02-16T13:34:28.722Z,4.76
2023-02-16T13:38:06.666Z,4.66
2023-02-16T13:41:44.708Z,4.76
2023-02-16T13:44:58.790Z,4.66
2023-02-16T13:48:19.540Z,4.66
2023-02-16T13:51:31.220Z,4.71
2023-02-16T13:54:44.141Z,4.74
2023-02-16T13:58:09.908Z,4.84
2023-02-16T14:01:43.292Z,4.95
2023-02-16T14:05:14.965Z,5.00
2023-02-16T14:08:27.687Z,5.01
2023-02-16T14:12:17.365Z,4.88
2023-02-16T14:15:24.237Z,4.81
2023-02-16T14:18:39.949Z,4.87
2023-02-16T14:21:52.045Z,4.71
2023-02-16T14:25:06.098Z,4.77
2023-02-16T14:29:01.840Z,4.81
2023-02-16T14:32:28.546Z,4.87
2023-02-16T14:35:40.239Z,4.86
2023-02-16T14:38:53.796Z,4.72
2023-02-16T14:42:11.536Z,4.67
2023-02-16T14:45:56.293Z,4.49
2023-02-16T14:49:58.577Z,4.47
2023-02-16T14:53:58.576Z,4.26
2023-02-16T14:57:17.544Z,4.07
2023-02-16T15:00:36.485Z,3.99
2023-02-16T15:03:48.455Z,4.01
2023-02-16T15:06:54.912Z,3.90
2023-02-16T15:10:02.397Z,3.95
2023-02-16T15:13:29.873Z,3.90
2023-02-16T15:16:36.789Z,3.80
2023-02-16T15:19:45.147Z,3.60
2023-02-16T15:22:53.253Z,3.63
2023-02-16T15:26:05.153Z,3.61
2023-02-16T15:29:29.735Z,3.59
2023-02-16T15:32:37.346Z,3.49
2023-02-16T15:35:46.962Z,3.43
2023-02-16T15:39:02.629Z,3.44
2023-02-16T15:42:27.437Z,3.28
2023-02-16T15:45:41.171Z,3.20
2023-02-16T15:48:46.907Z,3.09
2023-02-16T15:51:53.342Z,2.94
2023-02-16T15:54:59.861Z,2.85
2023-02-16T15:58:09.014Z,2.81
2023-02-16T16:01:31.635Z,2.65
2023-02-16T16:04:42.277Z,2.59
2023-02-16T16:07:47.973Z,2.59
2023-02-16T16:10:55.192Z,2.50
2023-02-16T16:14:00.908Z,2.44
2023-02-16T16:17:18.238Z,2.34
2023-02-16T16:20:34.116Z,2.35
2023-02-16T16:23:40.394Z,2.28
2023-02-16T16:26:58.447Z,2.24
2023-02-16T16:30:31.473Z,2.19
2023-02-16T16:33:59.567Z,2.16
2023-02-16T16:37:08.629Z,2.15
2023-02-16T16:40:32.716Z,1.71
2023-02-16T16:43:55.090Z,2.17
2023-02-16T16:47:00.613Z,2.16
2023-02-16T16:50:40.020Z,2.12
2023-02-16T16:53:57.747Z,2.03
2023-02-16T16:57:12.608Z,2.00
2023-02-16T17:00:18.832Z,1.92
2023-02-16T17:03:25.112Z,1.69
2023-02-16T17:06:33.716Z,1.55
2023-02-16T17:09:39.953Z,1.70
2023-02-16T17:12:45.700Z,1.56
2023-02-16T17:15:58.427Z,1.49
2023-02-16T17:19:04.048Z,1.47
2023-02-16T17:22:16.045Z,1.37
2023-02-16T17:25:22.182Z,1.43
2023-02-16T17:28:28.886Z,1.40
2023-02-16T17:31:34.309Z,1.40
2023-02-16T17:34:40.818Z,1.34
2023-02-16T17:37:49.015Z,1.27
2023-02-16T17:40:59.161Z,1.23
2023-02-16T17:44:04.612Z,1.22
2023-02-16T17:47:16.826Z,1.22
2023-02-16T17:50:23.345Z,1.24
2023-02-16T17:53:33.090Z,1.28
2023-02-16T17:56:41.810Z,1.26
2023-02-16T17:59:48.228Z,1.27
2023-02-16T18:02:53.628Z,1.26
2023-02-16T18:06:00.613Z,1.25
2023-02-16T18:09:08.983Z,1.25
2023-02-16T18:12:15.276Z,1.16
2023-02-16T18:15:20.828Z,1.08
2023-02-16T18:18:27.708Z,0.92
2023-02-16T18:21:33.147Z,0.79
2023-02-16T18:24:44.564Z,0.73
2023-02-16T18:27:50.432Z,0.67
2023-02-16T18:30:56.855Z,0.64
2023-02-16T18:34:02.302Z,0.67
2023-02-16T18:37:08.553Z,0.68
2023-02-16T18:40:22.514Z,0.66
2023-02-16T18:43:28.940Z,0.62
2023-02-16T18:46:34.717Z,0.57
2023-02-16T18:49:42.007Z,0.54
2023-02-16T18:52:48.192Z,0.43
2023-02-16T18:55:57.296Z,0.43
2023-02-16T18:59:02.792Z,0.38
2023-02-16T19:02:09.980Z,0.37
2023-02-16T19:05:15.539Z,0.32
2023-02-16T19:08:22.332Z,0.30
2023-02-16T19:11:32.950Z,0.30
2023-02-16T19:14:39.778Z,0.27
2023-02-16T19:17:45.936Z,0.28
2023-02-16T19:20:52.547Z,0.28
2023-02-16T19:23:58.205Z,0.30
2023-02-16T19:27:07.822Z,0.30
2023-02-16T19:30:16.079Z,0.25
2023-02-16T19:33:22.333Z,0.22
2023-02-16T19:36:30.129Z,0.20
2023-02-16T19:39:36.722Z,0.21
2023-02-16T19:42:45.333Z,0.19
2023-02-16T19:45:55.731Z,0.24
2023-02-16T19:49:02.973Z,0.30
2023-02-16T19:52:09.327Z,0.33
2023-02-16T19:55:14.739Z,0.28
2023-02-16T19:58:24.391Z,0.19
2023-02-16T20:01:31.738Z,0.20
2023-02-16T20:04:38.198Z,0.17
2023-02-16T20:07:43.641Z,0.12
2023-02-16T20:10:49.885Z,0.06
2023-02-16T20:14:00.342Z,0.03
2023-02-16T20:17:06.822Z,-0.01
2023-02-16T20:20:13.401Z,-0.02
2023-02-16T20:23:19.718Z,-0.06
2023-02-16T20:26:29.439Z,-0.12
2023-02-16T20:29:38.436Z,-0.18
2023-02-16T20:32:44.847Z,-0.24
2023-02-16T20:35:53.012Z,-0.30
2023-02-16T20:38:58.676Z,-0.30
2023-02-16T20:42:05.016Z,-0.29
2023-02-16T20:45:13.521Z,-0.24
2023-02-16T20:48:19.972Z,-0.24
2023-02-16T20:51:25.429Z,-0.28
2023-02-16T20:54:31.901Z,-0.36
2023-02-16T20:57:39.348Z,-0.55
2023-02-16T21:00:48.717Z,-0.31
2023-02-16T21:03:59.598Z,-0.38
2023-02-16T21:07:05.870Z,-0.43
2023-02-16T21:10:17.247Z,-0.45
2023-02-16T21:13:23.468Z,-0.44
2023-02-16T21:16:32.469Z,-0.62
2023-02-16T21:19:39.329Z,-0.43
2023-02-16T21:22:44.729Z,-0.41
2023-02-16T21:25:51.257Z,-0.51
2023-02-16T21:28:57.498Z,-0.57
2023-02-16T21:32:07.667Z,-0.60
2023-02-16T21:35:13.309Z,-0.66
2023-02-16T21:38:19.607Z,-0.67
2023-02-16T21:41:29.363Z,-0.68
2023-02-16T21:44:43.343Z,-0.69
2023-02-16T21:48:08.043Z,-0.60
2023-02-16T21:51:15.147Z,-0.56
2023-02-16T21:54:43.958Z,-0.54
2023-02-16T21:57:47.701Z,-0.52
2023-02-16T22:00:56.608Z,-0.60
2023-02-16T22:04:08.135Z,-0.62
2023-02-16T22:07:13.493Z,-0.62
2023-02-16T22:10:19.941Z,-0.67
2023-02-16T22:13:25.697Z,-0.71
2023-02-16T22:16:36.584Z,-0.96
2023-02-16T22:19:44.752Z,-0.85
2023-02-16T22:22:51.055Z,-0.85
2023-02-16T22:25:56.677Z,-0.85
2023-02-16T22:29:20.508Z,-0.76
2023-02-16T22:32:26.008Z,-0.71
2023-02-16T22:35:42.512Z,-0.76
2023-02-16T22:38:48.173Z,-0.78
2023-02-16T22:41:54.956Z,-1.04
2023-02-16T22:45:00.849Z,-0.66
2023-02-16T22:48:07.454Z,-0.67
2023-02-16T22:51:20.008Z,-0.67
2023-02-16T22:54:26.467Z,-0.56
2023-02-16T22:57:32.105Z,-0.51
2023-02-16T23:00:38.556Z,-0.55
2023-02-16T23:03:45.743Z,-0.56
2023-02-16T23:06:54.785Z,-0.53
2023-02-16T23:10:00.183Z,-0.57
2023-02-16T23:13:07.584Z,-1.16
2023-02-16T23:16:17.971Z,-0.60
2023-02-16T23:19:28.704Z,-0.71
2023-02-16T23:22:38.300Z,-0.77
2023-02-16T23:25:48.189Z,-0.83
2023-02-16T23:28:57.645Z,-0.85
2023-02-16T23:32:03.942Z,-0.88
2023-02-16T23:35:10.018Z,-0.79
2023-02-16T23:38:19.507Z,-0.69
2023-02-16T23:41:24.913Z,-0.57
2023-02-16T23:44:31.159Z,-0.47
2023-02-16T23:47:36.558Z,-0.47
2023-02-16T23:50:43.308Z,-0.40
2023-02-16T23:53:51.909Z,-0.32
2023-02-16T23:56:59.318Z,-0.23
